Bonaria — ICUS — position and weather

sailwx.info

Track history (hours):
 
Tides and Currents Weather Stations Pressure Air Temp Water Temp Dewpoint Dewpoint Depression Visibility Wind Speed Wind Dir Waves Ship Positions

Bonaria

Last reported at 2016-Jul-25 19:33 UTC. Time now 2016-Jul-25 20:06 UTC.
Position N 38°59' E 009°33'.

Length 214 m; draft 6.6 m.

Type: Passenger vessel. MMSI: 247322400.

Date/timePositionNaut miles runAvg speedWind from/ knotsBaromVisibWave heightAir tempDewpointWater temp
2016-Jul-25 19:33N 38°59' E 009°33'2120.6
2016-Jul-25 18:33N 39°09' E 009°10'4 4.4
2016-Jul-25 17:32N 39°13' E 009°06'0 0.0
2016-Jul-25 16:32N 39°13' E 009°06'202 5.8
2016-Jul-24 05:27N 41°59' E 011°38'12720.5
2016-Jul-23 23:15N 40°06' E 010°21'78 9.0
2016-Jul-23 14:33N 39°13' E 009°06'0 0.0
2016-Jul-23 13:33N 39°13' E 009°06'0 0.0
2016-Jul-23 12:33N 39°13' E 009°06'0 0.0
2016-Jul-23 11:33N 39°13' E 009°06'0 0.0
2016-Jul-23 10:33N 39°13' E 009°06'0 0.0
2016-Jul-23 09:32N 39°13' E 009°06'0 0.0
2016-Jul-23 08:33N 39°13' E 009°06'9 9.1
2016-Jul-23 07:31N 39°06' E 009°15'1817.8
2016-Jul-23 06:31N 39°03' E 009°38'8914.2
2016-Jul-23 00:15N 40°29' E 010°11'1318.4
2016-Jul-22 23:33N 40°39' E 010°20'2018.2
2016-Jul-22 22:28N 40°55' E 010°36'1718.3
2016-Jul-22 21:33N 41°09' E 010°48'1818.5
2016-Jul-22 20:33N 41°24' E 011°02'1918.6
2016-Jul-22 19:33N 41°39' E 011°17'1918.6
2016-Jul-22 18:33N 41°55' E 011°30'12 0.8
2016-Jul-22 04:33N 41°43' E 011°27'2019.8
2016-Jul-22 03:32N 41°25' E 011°15'2120.4
2016-Jul-22 02:32N 41°07' E 011°02'2020.6
2016-Jul-22 01:33N 40°49' E 010°51'12420.7
2016-Jul-21 19:33N 38°59' E 009°34'2120.5
2016-Jul-21 18:33N 39°08' E 009°10'5 5.0
2016-Jul-21 17:31N 39°13' E 009°06'0 0.0
2016-Jul-21 16:31N 39°13' E 009°06'0 0.0
2016-Jul-21 13:31N 39°13' E 009°06'0 0.0
2016-Jul-21 12:31N 39°13' E 009°06'0 0.0
2016-Jul-21 11:31N 39°13' E 009°06'0 0.0
2016-Jul-21 10:31N 39°13' E 009°06'0 0.0
2016-Jul-21 09:28N 39°13' E 009°06'0 0.0
2016-Jul-21 08:31N 39°13' E 009°06'10 9.9
2016-Jul-21 07:33N 39°06' E 009°15'1717.6
2016-Jul-21 06:34N 39°03' E 009°38'14715.7
2016-Jul-20 21:10N 41°17' E 010°56'1118.6
2016-Jul-20 20:34N 41°27' E 011°05'1918.8
2016-Jul-20 19:33N 41°42' E 011°19'2119.1
2016-Jul-20 18:27N 41°59' E 011°36'11 2.1
2016-Jul-20 13:28N 42°06' E 011°47'24 2.7
2016-Jul-20 04:34N 41°45' E 011°29'2020.3
2016-Jul-20 03:33N 41°27' E 011°17'2320.5
2016-Jul-20 02:26N 41°07' E 011°02'1820.8
2016-Jul-20 01:33N 40°50' E 010°52'4221.0
2016-Jul-19 23:33N 40°13' E 010°26'2121.2
2016-Jul-19 22:33N 39°54' E 010°14'2621.1
2016-Jul-19 21:19N 39°31' E 009°59'3720.9
2016-Jul-19 19:32N 38°59' E 009°33'2120.8
2016-Jul-19 18:32N 39°09' E 009°09'4 4.3
2016-Jul-19 17:32N 39°13' E 009°06'0 0.0
2016-Jul-19 16:32N 39°13' E 009°06'0 0.0
2016-Jul-19 15:32N 39°13' E 009°06'0 0.0
2016-Jul-19 14:32N 39°13' E 009°06'0 0.0
2016-Jul-19 13:32N 39°13' E 009°06'0 0.0
2016-Jul-19 12:32N 39°13' E 009°06'0 0.0
2016-Jul-19 11:32N 39°13' E 009°06'0 0.0
2016-Jul-19 10:32N 39°13' E 009°06'0 0.0
2016-Jul-19 09:32N 39°13' E 009°06'0 0.0
2016-Jul-19 08:32N 39°13' E 009°06'0 0.0
2016-Jul-19 07:32N 39°13' E 009°06'26 8.5
2016-Jul-19 04:33N 39°02' E 009°36'2120.8
2016-Jul-19 03:32N 39°20' E 009°51'2220.9
2016-Jul-19 02:29N 39°40' E 010°04'1920.7
2016-Jul-19 01:33N 39°57' E 010°15'2020.5
2016-Jul-19 00:33N 40°15' E 010°28'2020.5
2016-Jul-18 23:33N 40°33' E 010°39'2120.5
2016-Jul-18 22:33N 40°52' E 010°51'2221.0
2016-Jul-18 21:30N 41°12' E 011°04'2021.0
2016-Jul-18 20:33N 41°29' E 011°17'2121.2
2016-Jul-18 19:34N 41°48' E 011°30'2 0.2
2016-Jul-18 06:33N 41°49' E 011°27'1918.6
2016-Jul-18 05:33N 41°33' E 011°13'1918.5
2016-Jul-18 04:32N 41°18' E 010°58'3618.1
2016-Jul-18 02:33N 40°49' E 010°31'1818.4
2016-Jul-18 01:33N 40°34' E 010°16'10014.3
2016-Jul-17 18:33N 38°59' E 009°33'2120.7
2016-Jul-17 17:33N 39°09' E 009°10'4 4.3
2016-Jul-17 16:32N 39°13' E 009°06'0 0.0
2016-Jul-17 15:32N 39°13' E 009°06'0 0.0
2016-Jul-17 14:32N 39°13' E 009°06'0 0.0
2016-Jul-17 13:32N 39°13' E 009°06'0 0.0
2016-Jul-17 12:32N 39°13' E 009°06'0 0.0
2016-Jul-17 11:32N 39°13' E 009°06'0 0.0
2016-Jul-17 10:32N 39°13' E 009°06'0 0.0
2016-Jul-17 09:32N 39°13' E 009°06'0 0.0
2016-Jul-17 08:32N 39°13' E 009°06'0 0.0
2016-Jul-17 07:29N 39°13' E 009°06'0 0.0
2016-Jul-17 06:33N 39°13' E 009°06'2713.5
2016-Jul-17 04:33N 39°04' E 009°40'  
Track history (hours):
 
Tides and Currents Weather Stations Pressure Air Temp Water Temp Dewpoint Dewpoint Depression Visibility Wind Speed Wind Dir Waves Ship Positions

Bonaria

Last reported at 2016-Jul-25 19:33 UTC. Time now 2016-Jul-25 20:06 UTC.
Position N 38°59' E 009°33'.

Length 214 m; draft 6.6 m.

Type: Passenger vessel. MMSI: 247322400.

Date/timePositionNaut miles runAvg speedWind from/ knotsBaromVisibWave heightAir tempDewpointWater temp
2016-Jul-25 19:33N 38°59' E 009°33'2120.6
2016-Jul-25 18:33N 39°09' E 009°10'4 4.4
2016-Jul-25 17:32N 39°13' E 009°06'0 0.0
2016-Jul-25 16:32N 39°13' E 009°06'202 5.8
2016-Jul-24 05:27N 41°59' E 011°38'12720.5
2016-Jul-23 23:15N 40°06' E 010°21'78 9.0
2016-Jul-23 14:33N 39°13' E 009°06'0 0.0
2016-Jul-23 13:33N 39°13' E 009°06'0 0.0
2016-Jul-23 12:33N 39°13' E 009°06'0 0.0
2016-Jul-23 11:33N 39°13' E 009°06'0 0.0
2016-Jul-23 10:33N 39°13' E 009°06'0 0.0
2016-Jul-23 09:32N 39°13' E 009°06'0 0.0
2016-Jul-23 08:33N 39°13' E 009°06'9 9.1
2016-Jul-23 07:31N 39°06' E 009°15'1817.8
2016-Jul-23 06:31N 39°03' E 009°38'8914.2
2016-Jul-23 00:15N 40°29' E 010°11'1318.4
2016-Jul-22 23:33N 40°39' E 010°20'2018.2
2016-Jul-22 22:28N 40°55' E 010°36'1718.3
2016-Jul-22 21:33N 41°09' E 010°48'1818.5
2016-Jul-22 20:33N 41°24' E 011°02'1918.6
2016-Jul-22 19:33N 41°39' E 011°17'1918.6
2016-Jul-22 18:33N 41°55' E 011°30'12 0.8
2016-Jul-22 04:33N 41°43' E 011°27'2019.8
2016-Jul-22 03:32N 41°25' E 011°15'2120.4
2016-Jul-22 02:32N 41°07' E 011°02'2020.6
2016-Jul-22 01:33N 40°49' E 010°51'12420.7
2016-Jul-21 19:33N 38°59' E 009°34'2120.5
2016-Jul-21 18:33N 39°08' E 009°10'5 5.0
2016-Jul-21 17:31N 39°13' E 009°06'0 0.0
2016-Jul-21 16:31N 39°13' E 009°06'0 0.0
2016-Jul-21 13:31N 39°13' E 009°06'0 0.0
2016-Jul-21 12:31N 39°13' E 009°06'0 0.0
2016-Jul-21 11:31N 39°13' E 009°06'0 0.0
2016-Jul-21 10:31N 39°13' E 009°06'0 0.0
2016-Jul-21 09:28N 39°13' E 009°06'0 0.0
2016-Jul-21 08:31N 39°13' E 009°06'10 9.9
2016-Jul-21 07:33N 39°06' E 009°15'1717.6
2016-Jul-21 06:34N 39°03' E 009°38'14715.7
2016-Jul-20 21:10N 41°17' E 010°56'1118.6
2016-Jul-20 20:34N 41°27' E 011°05'1918.8
2016-Jul-20 19:33N 41°42' E 011°19'2119.1
2016-Jul-20 18:27N 41°59' E 011°36'11 2.1
2016-Jul-20 13:28N 42°06' E 011°47'24 2.7
2016-Jul-20 04:34N 41°45' E 011°29'2020.3
2016-Jul-20 03:33N 41°27' E 011°17'2320.5
2016-Jul-20 02:26N 41°07' E 011°02'1820.8
2016-Jul-20 01:33N 40°50' E 010°52'4221.0
2016-Jul-19 23:33N 40°13' E 010°26'2121.2
2016-Jul-19 22:33N 39°54' E 010°14'2621.1
2016-Jul-19 21:19N 39°31' E 009°59'3720.9
2016-Jul-19 19:32N 38°59' E 009°33'2120.8
2016-Jul-19 18:32N 39°09' E 009°09'4 4.3
2016-Jul-19 17:32N 39°13' E 009°06'0 0.0
2016-Jul-19 16:32N 39°13' E 009°06'0 0.0
2016-Jul-19 15:32N 39°13' E 009°06'0 0.0
2016-Jul-19 14:32N 39°13' E 009°06'0 0.0
2016-Jul-19 13:32N 39°13' E 009°06'0 0.0
2016-Jul-19 12:32N 39°13' E 009°06'0 0.0
2016-Jul-19 11:32N 39°13' E 009°06'0 0.0
2016-Jul-19 10:32N 39°13' E 009°06'0 0.0
2016-Jul-19 09:32N 39°13' E 009°06'0 0.0
2016-Jul-19 08:32N 39°13' E 009°06'0 0.0
2016-Jul-19 07:32N 39°13' E 009°06'26 8.5
2016-Jul-19 04:33N 39°02' E 009°36'2120.8
2016-Jul-19 03:32N 39°20' E 009°51'2220.9
2016-Jul-19 02:29N 39°40' E 010°04'1920.7
2016-Jul-19 01:33N 39°57' E 010°15'2020.5
2016-Jul-19 00:33N 40°15' E 010°28'2020.5
2016-Jul-18 23:33N 40°33' E 010°39'2120.5
2016-Jul-18 22:33N 40°52' E 010°51'2221.0
2016-Jul-18 21:30N 41°12' E 011°04'2021.0
2016-Jul-18 20:33N 41°29' E 011°17'2121.2
2016-Jul-18 19:34N 41°48' E 011°30'2 0.2
2016-Jul-18 06:33N 41°49' E 011°27'1918.6
2016-Jul-18 05:33N 41°33' E 011°13'1918.5
2016-Jul-18 04:32N 41°18' E 010°58'3618.1
2016-Jul-18 02:33N 40°49' E 010°31'1818.4
2016-Jul-18 01:33N 40°34' E 010°16'10014.3
2016-Jul-17 18:33N 38°59' E 009°33'2120.7
2016-Jul-17 17:33N 39°09' E 009°10'4 4.3
2016-Jul-17 16:32N 39°13' E 009°06'0 0.0
2016-Jul-17 15:32N 39°13' E 009°06'0 0.0
2016-Jul-17 14:32N 39°13' E 009°06'0 0.0
2016-Jul-17 13:32N 39°13' E 009°06'0 0.0
2016-Jul-17 12:32N 39°13' E 009°06'0 0.0
2016-Jul-17 11:32N 39°13' E 009°06'0 0.0
2016-Jul-17 10:32N 39°13' E 009°06'0 0.0
2016-Jul-17 09:32N 39°13' E 009°06'0 0.0
2016-Jul-17 08:32N 39°13' E 009°06'0 0.0
2016-Jul-17 07:29N 39°13' E 009°06'0 0.0
2016-Jul-17 06:33N 39°13' E 009°06'2713.5
2016-Jul-17 04:33N 39°04' E 009°40'  

Dump ship's entire track history